Nisku, Canada
Current Conditions -  °F | °C
As of 10:00 PM on Saturday 22 Nov 2014 (Local Time) from CYEG Reporting Station
Light Snow Light Snow  
Wind Chill: 11°   Ceiling: 2200
Heat Index: 21°   Visibility: 3mi
Dew Point: 18°   Wind: 9mph
Humidity: 86%   Direction: 340°NNW
Pressure: 29.62"   Gusts: NA
Location:  53.33°N, 113.53°W
Report Text: CYEG 230500Z 34008KT 3SM -SN SCT014 OVC022 M06/M08 A2962 RMK SC3SC5 SLP066
Loading
Personal Weather Stations






























Interactive Weather Map New forecast layout! Learn more

10-Day Weather Forecast

Advertisements
Track Severe Weather on mobile